Bryantville, Massachusetts
Current Conditions -  °F | °C
As of 1:52 PM on Thursday 30 Oct 2014 (Local Time) from KPYM Reporting Station
Scattered Clouds Scattered Clouds  
Wind Chill: 16°   Ceiling: Unl
Heat Index: 16°   Visibility: 10mi
Dew Point:   Wind: 8mph
Humidity: 47%   Direction: 290°WNW
Pressure: 29.91"   Gusts: NA
Location:  42.04°N, 70.84°W
Report Text: KPYM 301752Z AUTO 29007KT 10SM SCT065 16/04 A2991 RMK AO2 SLP126 T01560044 10156 20044 56011
Loading
Personal Weather Stations






























Interactive Weather Map
Tropical Storm Tracking
New forecast layout! Learn more

10-Day Weather Forecast

Advertisements
Track Severe Weather on mobile